Time;durP1;ratioP1;P1;durP2;ratioP2;P2;SDS_P1;SDS_P2;PMS_P1;PMS_P2;Temp;Humidity;BMP_temperature;BMP_pressure;BME280_temperature;BME280_humidity;BME280_pressure;Samples;Min_cycle;Max_cycle;Signal;HPM_P1;HPM_P2
2022/06/15 00:00:39;;;;;;;;;;;;;;;-140.72;100.00;52411.16;6265952;22;19950;-68
2022/06/15 00:03:04;;;;;;;;;;;;;;;-140.72;100.00;52411.16;6292580;22;19934;-68
2022/06/15 00:05:29;;;;;;;;;;;;;;;-140.72;100.00;52403.03;6290968;22;19915;-67
2022/06/15 00:07:55;;;;;;;;;;;;;;;-140.72;100.00;52407.09;6292756;22;19915;-67
2022/06/15 00:10:21;;;;;;;;;;;;;;;-140.72;100.00;52394.91;6265524;22;19958;-68
2022/06/15 00:12:46;;;;;;;;;;;;;;;-140.72;100.00;52388.84;6292537;22;19941;-67
2022/06/15 00:15:13;;;;;;;;;;;;;;;-140.72;100.00;52394.91;6293656;22;19915;-67
2022/06/15 00:17:38;;;;;;;;;;;;;;;-140.72;100.00;52405.06;6293980;22;19957;-67
2022/06/15 00:20:03;;;;;;;;;;;;;;;-140.72;100.00;52431.44;6294725;22;19986;-69
2022/06/15 00:22:29;;;;;;;;;;;;;;;-140.72;100.00;52417.25;6267858;22;19911;-67
2022/06/15 00:24:54;;;;;;;;;;;;;;;-140.72;100.00;52415.22;6294361;22;19918;-69
2022/06/15 00:27:19;;;;;;;;;;;;;;;-140.72;100.00;52382.75;6266928;22;20048;-68
2022/06/15 00:29:44;;;;;;;;;;;;;;;-140.72;100.00;52415.22;6294088;22;19911;-67
2022/06/15 00:32:10;;;;;;;;;;;;;;;-140.72;100.00;52386.81;6266983;22;19961;-68
2022/06/15 00:34:35;;;;;;;;;;;;;;;-140.72;100.00;52419.28;6294175;22;19955;-67
2022/06/15 00:37:01;;;;;;;;;;;;;;;-140.72;100.00;52437.53;6293978;22;19911;-67
2022/06/15 00:39:26;;;;;;;;;;;;;;;-140.72;100.00;52451.72;6294175;22;19934;-67
2022/06/15 00:41:51;;;;;;;;;;;;;;;-140.72;100.00;52417.25;6293666;22;19918;-67
2022/06/15 00:44:17;;;;;;;;;;;;;;;-140.72;100.00;52409.13;6294202;22;19955;-67
2022/06/15 00:46:44;;;;;;;;;;;;;;;-140.72;100.00;52431.44;6290119;22;19922;-66
2022/06/15 00:49:09;;;;;;;;;;;;;;;-140.72;100.00;52427.38;6293363;22;19946;-67
2022/06/15 00:51:35;;;;;;;;;;;;;;;-140.72;100.00;52439.56;6293683;22;19980;-67
2022/06/15 00:54:00;;;;;;;;;;;;;;;-140.72;100.00;52394.91;6293449;22;19933;-68
2022/06/15 00:56:27;;;;;;;;;;;;;;;-140.72;100.00;52403.03;6293780;22;19911;-67
2022/06/15 00:58:55;;;;;;;;;;;;;;;-140.72;100.00;52425.34;6267516;22;19941;-67
2022/06/15 01:01:20;;;;;;;;;;;;;;;-140.72;100.00;52439.56;6294014;22;20390;-67
2022/06/15 01:03:49;;;;;;;;;;;;;;;-140.72;100.00;52419.28;6294321;22;19911;-67
2022/06/15 01:06:22;;;;;;;;;;;;;;;-140.72;100.00;52415.22;6265733;22;19952;-67
2022/06/15 01:08:58;;;;;;;;;;;;;;;-140.72;100.00;52417.25;6292706;22;20240;-66
2022/06/15 01:11:24;;;;;;;;;;;;;;;-140.72;100.00;52415.22;6291753;22;19918;-67
2022/06/15 01:14:08;;;;;;;;;;;;;;;-140.72;100.00;52403.03;6292816;22;19911;-67
2022/06/15 01:16:39;;;;;;;;;;;;;;;-140.72;100.00;52384.78;6292484;22;19941;-67
2022/06/15 01:19:20;;;;;;;;;;;;;;;-140.72;100.00;52423.31;6293616;22;19964;-68
2022/06/15 01:22:04;;;;;;;;;;;;;;;-140.72;100.00;52461.88;6267782;22;20225;-68
2022/06/15 01:24:35;;;;;;;;;;;;;;;-140.72;100.00;52423.31;6294245;22;19926;-67
2022/06/15 01:27:19;;;;;;;;;;;;;;;-140.72;100.00;52449.72;6294292;22;19934;-68
2022/06/15 01:29:51;;;;;;;;;;;;;;;-140.72;100.00;52396.94;6295349;22;19918;-67
2022/06/15 01:32:30;;;;;;;;;;;;;;;-140.72;100.00;52398.97;6242384;22;19916;-68
2022/06/15 01:34:58;;;;;;;;;;;;;;;-140.72;100.00;52445.66;6294166;22;20359;-67
2022/06/15 01:37:23;;;;;;;;;;;;;;;-140.72;100.00;52443.63;6294621;22;19911;-68
2022/06/15 01:39:53;;;;;;;;;;;;;;;-140.72;100.00;52449.72;6294273;22;19911;-68
2022/06/15 01:42:20;;;;;;;;;;;;;;;-140.72;100.00;52445.66;6268446;22;19919;-66
2022/06/15 01:44:47;;;;;;;;;;;;;;;-140.72;100.00;52449.72;6293894;22;19919;-67
2022/06/15 01:47:18;;;;;;;;;;;;;;;-140.72;100.00;52435.50;6266843;22;19915;-66
2022/06/15 01:49:50;;;;;;;;;;;;;;;-140.72;100.00;52435.50;6295396;22;19965;-66
2022/06/15 01:52:18;;;;;;;;;;;;;;;-140.72;100.00;52427.38;6296323;22;19955;-67
2022/06/15 01:54:52;;;;;;;;;;;;;;;-140.72;100.00;52463.91;6268070;22;19912;-67
2022/06/15 01:57:18;;;;;;;;;;;;;;;-140.72;100.00;52447.69;6269761;22;19911;-68
2022/06/15 01:59:56;;;;;;;;;;;;;;;-140.72;100.00;52447.69;6268713;22;20224;-66
2022/06/15 02:02:33;;;;;;;;;;;;;;;-140.72;100.00;52425.34;6296662;22;19918;-67
2022/06/15 02:05:17;;;;;;;;;;;;;;;-140.72;100.00;52459.84;6269942;22;19978;-68
2022/06/15 02:07:49;;;;;;;;;;;;;;;-140.72;100.00;52472.03;6295818;22;19915;-67
2022/06/15 02:10:20;;;;;;;;;;;;;;;-140.72;100.00;52429.41;6297014;22;19938;-67
2022/06/15 02:12:51;;;;;;;;;;;;;;;-140.72;100.00;52443.63;6267453;22;19911;-67
2022/06/15 02:15:19;;;;;;;;;;;;;;;-140.72;100.00;52447.69;6295808;22;19986;-67
2022/06/15 02:17:46;;;;;;;;;;;;;;;-140.72;100.00;52453.75;6295925;22;19915;-67
2022/06/15 02:20:16;;;;;;;;;;;;;;;-140.72;100.00;52429.41;6269068;22;19911;-68
2022/06/15 02:22:44;;;;;;;;;;;;;;;-140.72;100.00;52457.81;6295519;22;19911;-68
2022/06/15 02:25:13;;;;;;;;;;;;;;;-140.72;100.00;52447.69;6295692;22;20313;-67
2022/06/15 02:27:40;;;;;;;;;;;;;;;-140.72;100.00;52419.28;6295586;22;19965;-67
2022/06/15 02:30:08;;;;;;;;;;;;;;;-140.72;100.00;52449.72;6295619;22;19911;-67
2022/06/15 02:32:35;;;;;;;;;;;;;;;-140.72;100.00;52415.22;6293991;22;19942;-67
2022/06/15 02:35:00;;;;;;;;;;;;;;;-140.72;100.00;52447.69;6247616;22;19907;-66
2022/06/15 02:37:25;;;;;;;;;;;;;;;-140.72;100.00;52435.50;6301711;22;19922;-67
2022/06/15 02:39:50;;;;;;;;;;;;;;;-140.72;100.00;52419.28;6301931;22;19915;-65
2022/06/15 02:42:24;;;;;;;;;;;;;;;-140.72;100.00;52459.84;6301442;22;19911;-66
2022/06/15 02:44:50;;;;;;;;;;;;;;;-140.72;100.00;52449.72;6272848;22;19911;-66
2022/06/15 02:47:18;;;;;;;;;;;;;;;-140.72;100.00;52453.75;6301276;22;19899;-66
2022/06/15 02:49:44;;;;;;;;;;;;;;;-140.72;100.00;52451.72;6302023;22;19923;-67
2022/06/15 02:52:11;;;;;;;;;;;;;;;-140.72;100.00;52465.94;6301402;22;19919;-66
2022/06/15 02:54:40;;;;;;;;;;;;;;;-140.72;100.00;52447.69;6301169;22;19915;-67
2022/06/15 02:57:06;;;;;;;;;;;;;;;-140.72;100.00;52451.72;6274862;22;19911;-67
2022/06/15 02:59:31;;;;;;;;;;;;;;;-140.72;100.00;52453.75;6299707;22;19911;-68
2022/06/15 03:01:57;;;;;;;;;;;;;;;-140.72;100.00;52425.34;6300874;22;19954;-67
2022/06/15 03:04:22;;;;;;;;;;;;;;;-140.72;100.00;52427.38;6273444;22;19911;-68
2022/06/15 03:06:47;;;;;;;;;;;;;;;-140.72;100.00;52484.19;6300784;22;19912;-68
2022/06/15 03:09:12;;;;;;;;;;;;;;;-140.72;100.00;52472.03;6301332;22;19911;-67
2022/06/15 03:11:40;;;;;;;;;;;;;;;-140.72;100.00;52480.16;6300992;22;19963;-67
2022/06/15 03:14:05;;;;;;;;;;;;;;;-140.72;100.00;52437.53;6271922;22;20297;-67
2022/06/15 03:16:30;;;;;;;;;;;;;;;-140.72;100.00;52451.72;6272872;22;19906;-67
2022/06/15 03:18:55;;;;;;;;;;;;;;;-140.72;100.00;52439.56;6300693;22;20093;-67
2022/06/15 03:21:21;;;;;;;;;;;;;;;-140.72;100.00;52443.63;6299002;22;19965;-67
2022/06/15 03:23:46;;;;;;;;;;;;;;;-140.72;100.00;52417.25;6272498;22;20010;-67
2022/06/15 03:26:12;;;;;;;;;;;;;;;-140.72;100.00;52447.69;6271209;22;19921;-67
2022/06/15 03:28:37;;;;;;;;;;;;;;;-140.72;100.00;52439.56;6273541;22;19955;-67
2022/06/15 03:31:03;;;;;;;;;;;;;;;-140.72;100.00;52463.91;6300888;22;19919;-67
2022/06/15 03:33:28;;;;;;;;;;;;;;;-140.72;100.00;52451.72;6301106;22;19911;-67
2022/06/15 03:35:53;;;;;;;;;;;;;;;-140.72;100.00;52451.72;6274337;22;19911;-68
2022/06/15 03:38:19;;;;;;;;;;;;;;;-140.72;100.00;52476.09;6300054;22;19937;-67
2022/06/15 03:40:46;;;;;;;;;;;;;;;-140.72;100.00;52455.78;6299318;22;20244;-67
2022/06/15 03:43:11;;;;;;;;;;;;;;;-140.72;100.00;52447.69;6300963;22;19942;-68
2022/06/15 03:45:37;;;;;;;;;;;;;;;-140.72;100.00;52419.28;6299716;22;19911;-67
2022/06/15 03:48:03;;;;;;;;;;;;;;;-140.72;100.00;52449.72;6299401;22;19911;-67
2022/06/15 03:50:29;;;;;;;;;;;;;;;-140.72;100.00;52472.03;6299569;22;19906;-67
2022/06/15 03:52:54;;;;;;;;;;;;;;;-140.72;100.00;52465.94;6272076;22;19915;-67
2022/06/15 03:55:20;;;;;;;;;;;;;;;-140.72;100.00;52427.38;6298876;22;19911;-67
2022/06/15 03:57:46;;;;;;;;;;;;;;;-140.72;100.00;52472.03;6299346;22;19926;-67
2022/06/15 04:00:13;;;;;;;;;;;;;;;-140.72;100.00;52439.56;6300049;22;19911;-67
2022/06/15 04:02:38;;;;;;;;;;;;;;;-140.72;100.00;52451.72;6300625;22;19911;-68
2022/06/15 04:05:04;;;;;;;;;;;;;;;-140.72;100.00;52451.72;6273587;22;19911;-67
2022/06/15 04:10:14;;;;;;;;;;;;;;;-140.72;100.00;52455.78;6300102;22;19922;-67
2022/06/15 04:12:39;;;;;;;;;;;;;;;-140.72;100.00;52463.91;6300032;22;20341;-67
2022/06/15 04:15:05;;;;;;;;;;;;;;;-140.72;100.00;52431.44;6299989;22;19922;-67
2022/06/15 04:17:30;;;;;;;;;;;;;;;-140.72;100.00;52445.66;6301072;22;19911;-67
2022/06/15 04:22:39;;;;;;;;;;;;;;;-140.72;100.00;52451.72;6300075;22;19982;-68
2022/06/15 04:25:04;;;;;;;;;;;;;;;-140.72;100.00;52423.31;6300397;22;19911;-68
2022/06/15 04:27:32;;;;;;;;;;;;;;;-140.72;100.00;52419.28;6272813;22;19911;-67
2022/06/15 04:29:57;;;;;;;;;;;;;;;-140.72;100.00;52443.63;6299919;22;19911;-67
2022/06/15 04:32:23;;;;;;;;;;;;;;;-140.72;100.00;52409.13;6276418;22;19911;-69
2022/06/15 04:34:48;;;;;;;;;;;;;;;-140.72;100.00;52419.28;6261513;22;19957;-69
2022/06/15 04:37:13;;;;;;;;;;;;;;;-140.72;100.00;52423.31;6259137;22;19969;-72
2022/06/15 04:39:38;;;;;;;;;;;;;;;-140.72;100.00;52415.22;6268528;22;20400;-69
2022/06/15 04:42:04;;;;;;;;;;;;;;;-140.72;100.00;52423.31;6297598;22;20213;-70
2022/06/15 04:44:29;;;;;;;;;;;;;;;-140.72;100.00;52401.00;6275277;22;19916;-69
2022/06/15 04:46:54;;;;;;;;;;;;;;;-140.72;100.00;52419.28;6303237;22;19914;-69
2022/06/15 04:49:19;;;;;;;;;;;;;;;-140.72;100.00;52413.19;6304149;22;19952;-71
2022/06/15 04:51:45;;;;;;;;;;;;;;;-140.72;100.00;52392.88;6304310;22;19918;-70
2022/06/15 04:54:10;;;;;;;;;;;;;;;-140.72;100.00;52439.56;6276476;22;19915;-74
2022/06/15 04:56:37;;;;;;;;;;;;;;;-140.72;100.00;52423.31;6303072;22;19899;-70
2022/06/15 04:59:03;;;;;;;;;;;;;;;-140.72;100.00;52403.03;6299129;22;19935;-71
2022/06/15 05:01:28;;;;;;;;;;;;;;;-140.72;100.00;52451.72;6270191;22;19911;-68
2022/06/15 05:03:53;;;;;;;;;;;;;;;-140.72;100.00;52427.38;6298943;22;19915;-67
2022/06/15 05:06:29;;;;;;;;;;;;;;;-140.72;100.00;52411.16;6272114;22;19931;-69
2022/06/15 05:08:55;;;;;;;;;;;;;;;-140.72;100.00;52376.66;6272408;22;19939;-71
2022/06/15 05:11:20;;;;;;;;;;;;;;;-140.72;100.00;52415.22;6276289;22;19902;-71
2022/06/15 05:13:45;;;;;;;;;;;;;;;-140.72;100.00;52394.91;6274767;22;19915;-70
2022/06/15 05:16:10;;;;;;;;;;;;;;;-140.72;100.00;52435.50;6268419;22;20291;-70
2022/06/15 05:18:35;;;;;;;;;;;;;;;-140.72;100.00;52411.16;6301628;22;19942;-73
2022/06/15 05:21:01;;;;;;;;;;;;;;;-140.72;100.00;52447.69;6301692;22;19914;-68
2022/06/15 05:23:26;;;;;;;;;;;;;;;-140.72;100.00;52398.97;6301312;22;19935;-68
2022/06/15 05:25:51;;;;;;;;;;;;;;;-140.72;100.00;52433.47;6274646;22;19899;-70
2022/06/15 05:28:16;;;;;;;;;;;;;;;-140.72;100.00;52403.03;6248285;22;19967;-68
2022/06/15 05:30:42;;;;;;;;;;;;;;;-140.72;100.00;52398.97;6300102;22;19911;-68
2022/06/15 05:33:07;;;;;;;;;;;;;;;-140.72;100.00;52388.84;6300933;22;19942;-67
2022/06/15 05:35:32;;;;;;;;;;;;;;;-140.72;100.00;52362.44;6274277;22;19915;-68
2022/06/15 05:37:57;;;;;;;;;;;;;;;-140.72;100.00;52398.97;6274244;22;19943;-68
2022/06/15 05:40:23;;;;;;;;;;;;;;;-140.72;100.00;52388.84;6301513;22;19921;-70
2022/06/15 05:42:48;;;;;;;;;;;;;;;-140.72;100.00;52423.31;6302321;22;19922;-68
2022/06/15 05:45:13;;;;;;;;;;;;;;;-140.72;100.00;52386.81;6272814;22;19926;-69
2022/06/15 05:47:39;;;;;;;;;;;;;;;-140.72;100.00;52374.63;6300377;22;19915;-70
2022/06/15 05:50:05;;;;;;;;;;;;;;;-140.72;100.00;52356.38;6268107;22;19998;-74
2022/06/15 05:52:30;;;;;;;;;;;;;;;-140.72;100.00;52392.88;6268783;22;19923;-69
2022/06/15 05:54:58;;;;;;;;;;;;;;;-140.72;100.00;52382.75;6293654;22;20229;-70
2022/06/15 05:57:24;;;;;;;;;;;;;;;-140.72;100.00;52368.53;6269487;22;19910;-69
2022/06/15 05:59:49;;;;;;;;;;;;;;;-140.72;100.00;52392.88;6274321;22;19930;-73
2022/06/15 06:02:16;;;;;;;;;;;;;;;-140.72;100.00;52354.34;6276739;22;19962;-71
2022/06/15 06:04:41;;;;;;;;;;;;;;;-140.72;100.00;52338.09;6303136;22;19931;-68
2022/06/15 06:07:08;;;;;;;;;;;;;;;-140.72;100.00;52374.63;6302856;22;19898;-68
2022/06/15 06:09:33;;;;;;;;;;;;;;;-140.72;100.00;52405.06;6301948;22;19903;-69
2022/06/15 06:11:58;;;;;;;;;;;;;;;-140.72;100.00;52346.22;6275662;22;19919;-69
2022/06/15 06:14:23;;;;;;;;;;;;;;;-140.72;100.00;52398.97;6276089;22;19955;-70
2022/06/15 06:16:49;;;;;;;;;;;;;;;-140.72;100.00;52342.16;6302493;22;19918;-68
2022/06/15 06:19:14;;;;;;;;;;;;;;;-140.72;100.00;52303.59;6302589;22;19926;-68
2022/06/15 06:21:39;;;;;;;;;;;;;;;-140.72;100.00;52330.00;6275704;22;19915;-68
2022/06/15 06:24:05;;;;;;;;;;;;;;;-140.72;100.00;52350.28;6275346;22;19895;-68
2022/06/15 06:26:31;;;;;;;;;;;;;;;-140.72;100.00;52350.28;6302732;22;19899;-68
2022/06/15 06:28:57;;;;;;;;;;;;;;;-140.72;100.00;52338.09;6275788;22;19903;-68
2022/06/15 06:31:22;;;;;;;;;;;;;;;-140.72;100.00;52342.16;6302570;22;19911;-68
2022/06/15 06:33:48;;;;;;;;;;;;;;;-140.72;100.00;52330.00;6275355;22;19953;-69
2022/06/15 06:36:28;;;;;;;;;;;;;;;-140.72;100.00;52356.38;6304647;22;19958;-68
2022/06/15 06:38:53;;;;;;;;;;;;;;;-140.72;100.00;52299.56;6304859;22;19960;-70
2022/06/15 06:41:20;;;;;;;;;;;;;;;-140.72;100.00;52321.88;6305111;22;19907;-68
2022/06/15 06:43:45;;;;;;;;;;;;;;;-140.72;100.00;52323.91;6304774;22;19947;-68
2022/06/15 06:46:11;;;;;;;;;;;;;;;-140.72;100.00;52297.53;6304155;22;19895;-69
2022/06/15 06:48:36;;;;;;;;;;;;;;;-140.72;100.00;52287.38;6277828;22;20015;-68
2022/06/15 06:51:01;;;;;;;;;;;;;;;-140.72;100.00;52297.53;6277485;22;19911;-69
2022/06/15 06:53:27;;;;;;;;;;;;;;;-140.72;100.00;52242.75;6277536;22;19922;-68
2022/06/15 06:55:52;;;;;;;;;;;;;;;-140.72;100.00;52265.06;6278096;22;19918;-68
2022/06/15 06:58:17;;;;;;;;;;;;;;;-140.72;100.00;52321.88;6304141;22;19904;-69
2022/06/15 07:00:42;;;;;;;;;;;;;;;-140.72;100.00;52295.50;6304771;22;19904;-68
2022/06/15 07:03:08;;;;;;;;;;;;;;;-140.72;100.00;52330.00;6277481;22;19911;-68
2022/06/15 07:05:34;;;;;;;;;;;;;;;-140.72;100.00;52273.19;6302101;22;19941;-71
2022/06/15 07:08:00;;;;;;;;;;;;;;;-140.72;100.00;52265.06;6296376;22;19922;-70
2022/06/15 07:10:26;;;;;;;;;;;;;;;-140.72;100.00;52315.78;6295480;22;19911;-70
2022/06/15 07:12:52;;;;;;;;;;;;;;;-140.72;100.00;52236.66;6269767;22;19911;-70
2022/06/15 07:15:18;;;;;;;;;;;;;;;-140.72;100.00;52252.88;6296378;22;19915;-70
2022/06/15 07:17:43;;;;;;;;;;;;;;;-140.72;100.00;52236.66;6296191;22;19922;-70
2022/06/15 07:20:09;;;;;;;;;;;;;;;-140.72;100.00;52287.38;6294517;22;19922;-71
2022/06/15 07:22:35;;;;;;;;;;;;;;;-140.72;100.00;52283.31;6267646;22;19912;-72
2022/06/15 07:25:00;;;;;;;;;;;;;;;-140.72;100.00;52236.66;6268184;22;19917;-71
2022/06/15 07:27:26;;;;;;;;;;;;;;;-140.72;100.00;52267.09;6286078;22;19911;-71
2022/06/15 07:29:53;;;;;;;;;;;;;;;-140.72;100.00;52238.69;6293246;22;19912;-71
2022/06/15 07:32:18;;;;;;;;;;;;;;;-140.72;100.00;52289.41;6291967;22;19955;-71
2022/06/15 07:34:44;;;;;;;;;;;;;;;-140.72;100.00;52236.66;6292672;22;20189;-72
2022/06/15 07:37:10;;;;;;;;;;;;;;;-140.72;100.00;52200.13;6291211;22;19926;-71
2022/06/15 07:39:36;;;;;;;;;;;;;;;-140.72;100.00;52194.03;6294014;22;19922;-71
2022/06/15 07:42:02;;;;;;;;;;;;;;;-140.72;100.00;52208.25;6267277;22;19934;-70
2022/06/15 07:44:27;;;;;;;;;;;;;;;-140.72;100.00;52222.44;6294830;22;19931;-71
2022/06/15 07:49:54;;;;;;;;;;;;;;;-140.72;100.00;52234.63;6267385;22;19911;-71
2022/06/15 07:49:54;;;;;;;;;;;;;;;-140.72;100.00;52196.06;6295408;22;19961;-70
2022/06/15 07:52:20;;;;;;;;;;;;;;;-140.72;100.00;52212.31;6300816;22;19951;-69
2022/06/15 07:54:45;;;;;;;;;;;;;;;-140.72;100.00;52208.25;6298219;22;19938;-69
2022/06/15 07:57:10;;;;;;;;;;;;;;;-140.72;100.00;52198.09;6299541;22;19900;-72
2022/06/15 07:59:35;;;;;;;;;;;;;;;-140.72;100.00;52206.22;6268114;22;19919;-73
2022/06/15 08:02:01;;;;;;;;;;;;;;;-140.72;100.00;52214.34;6300589;22;19941;-70
2022/06/15 08:04:26;;;;;;;;;;;;;;;-140.72;100.00;52143.31;6300565;22;19911;-69
2022/06/15 08:06:51;;;;;;;;;;;;;;;-140.72;100.00;52143.31;6298455;22;19950;-70
2022/06/15 08:09:17;;;;;;;;;;;;;;;-140.72;100.00;52177.81;6270784;22;19904;-71
2022/06/15 08:12:11;;;;;;;;;;;;;;;-140.72;100.00;52175.78;6301706;22;19922;-71
2022/06/15 08:14:29;;;;;;;;;;;;;;;-140.72;100.00;52163.59;6301792;22;19919;-70
2022/06/15 08:16:54;;;;;;;;;;;;;;;-140.72;100.00;52167.66;6296361;22;19946;-71
2022/06/15 08:19:20;;;;;;;;;;;;;;;-140.72;100.00;52155.50;6276834;22;19928;-70
2022/06/15 08:21:45;;;;;;;;;;;;;;;-140.72;100.00;52135.19;6276851;22;19915;-70
2022/06/15 08:24:11;;;;;;;;;;;;;;;-140.72;100.00;52143.31;6276519;22;19895;-71
2022/06/15 08:26:37;;;;;;;;;;;;;;;-140.72;100.00;52143.31;6302450;22;19903;-72
2022/06/15 08:29:04;;;;;;;;;;;;;;;-140.72;100.00;52114.91;6302183;22;19904;-71
2022/06/15 08:31:29;;;;;;;;;;;;;;;-140.72;100.00;52131.16;6276535;22;19900;-72
2022/06/15 08:33:55;;;;;;;;;;;;;;;-140.72;100.00;52094.63;6293435;22;19927;-71
2022/06/15 08:36:20;;;;;;;;;;;;;;;-140.72;100.00;52116.94;6272343;22;19919;-70
2022/06/15 08:38:46;;;;;;;;;;;;;;;-140.72;100.00;52110.84;6245282;22;19916;-71
2022/06/15 08:41:11;;;;;;;;;;;;;;;-140.72;100.00;52090.56;6271591;22;19916;-70
2022/06/15 08:43:48;;;;;;;;;;;;;;;-140.72;100.00;52098.69;6271272;22;19904;-71
2022/06/15 08:46:32;;;;;;;;;;;;;;;-140.72;100.00;52094.63;6245604;23;19945;-70
2022/06/15 08:49:12;;;;;;;;;;;;;;;-140.72;100.00;52080.41;6272064;23;19903;-71
2022/06/15 08:51:39;;;;;;;;;;;;;;;-140.72;100.00;52035.78;6245301;23;19935;-71
2022/06/15 08:54:06;;;;;;;;;;;;;;;-140.72;100.00;52035.78;6270293;23;19935;-70
2022/06/15 08:56:38;;;;;;;;;;;;;;;-140.72;100.00;52025.63;6245053;22;19916;-72
2022/06/15 08:59:19;;;;;;;;;;;;;;;-140.72;100.00;52074.34;6271605;22;21140;-70
2022/06/15 09:01:55;;;;;;;;;;;;;;;-140.72;100.00;52066.22;6271006;23;19930;-70
2022/06/15 09:04:40;;;;;;;;;;;;;;;-140.72;100.00;52017.53;6245837;22;19907;-70
2022/06/15 09:07:06;;;;;;;;;;;;;;;-140.72;100.00;52045.94;6272186;22;19915;-71
2022/06/15 09:09:49;;;;;;;;;;;;;;;-140.72;100.00;52009.41;6272086;22;19915;-71
2022/06/15 09:15:26;;;;;;;;;;;;;;;-140.72;100.00;51956.66;6272033;22;19927;-70
2022/06/15 09:17:54;;;;;;;;;;;;;;;-140.72;100.00;51940.41;6271070;23;20027;-71
2022/06/15 09:20:24;;;;;;;;;;;;;;;-140.72;100.00;51944.47;6271461;22;19968;-70
2022/06/15 09:22:53;;;;;;;;;;;;;;;-140.72;100.00;51940.41;6271705;22;19920;-71
2022/06/15 09:25:26;;;;;;;;;;;;;;;-140.72;100.00;51926.22;6271612;23;19967;-70
2022/06/15 09:27:54;;;;;;;;;;;;;;;-140.72;100.00;51877.53;6245459;23;19974;-70
2022/06/15 09:30:21;;;;;;;;;;;;;;;-140.72;100.00;51914.03;6271434;22;19927;-71
2022/06/15 09:32:50;;;;;;;;;;;;;;;-140.72;100.00;51867.38;6271317;22;19924;-70
2022/06/15 09:35:36;;;;;;;;;;;;;;;-140.72;100.00;51847.09;6268221;22;20202;-67
2022/06/15 09:38:02;;;;;;;;;;;;;;;-140.72;100.00;51867.38;6268357;23;19912;-69
2022/06/15 09:40:35;;;;;;;;;;;;;;;-140.72;100.00;51851.16;6242958;23;19922;-68
2022/06/15 09:43:01;;;;;;;;;;;;;;;-140.72;100.00;51826.81;6269653;23;19938;-70
2022/06/15 09:45:45;;;;;;;;;;;;;;;-140.72;100.00;51794.34;6270118;23;19944;-69
2022/06/15 09:48:10;;;;;;;;;;;;;;;-140.72;100.00;51814.63;6269052;23;19912;-68
2022/06/15 09:50:39;;;;;;;;;;;;;;;-140.72;100.00;51792.31;6269063;23;19947;-68
2022/06/15 09:53:04;;;;;;;;;;;;;;;-140.72;100.00;51759.84;6242487;23;19912;-70
2022/06/15 09:55:37;;;;;;;;;;;;;;;-140.72;100.00;51776.09;6268835;23;19925;-69
2022/06/15 09:58:05;;;;;;;;;;;;;;;-140.72;100.00;51737.53;6269261;23;19922;-70
2022/06/15 10:00:30;;;;;;;;;;;;;;;-140.72;100.00;51731.44;6268994;23;19915;-69
2022/06/15 10:02:58;;;;;;;;;;;;;;;-140.72;100.00;51713.19;6268181;23;19935;-70
2022/06/15 10:05:26;;;;;;;;;;;;;;;-140.72;100.00;51715.22;6243453;23;19915;-71
2022/06/15 10:07:54;;;;;;;;;;;;;;;-140.72;100.00;51709.13;6270202;22;19916;-68
2022/06/15 10:10:25;;;;;;;;;;;;;;;-140.72;100.00;51682.75;6243785;23;19911;-70
2022/06/15 10:12:59;;;;;;;;;;;;;;;-140.72;100.00;51670.59;6272041;23;19919;-72
2022/06/15 10:15:44;;;;;;;;;;;;;;;-140.72;100.00;51682.75;6245275;23;19950;-68
2022/06/15 10:18:13;;;;;;;;;;;;;;;-140.72;100.00;51642.19;6254805;23;20021;-72
2022/06/15 10:20:39;;;;;;;;;;;;;;;-140.72;100.00;51619.88;6271201;22;19923;-71
2022/06/15 10:23:25;;;;;;;;;;;;;;;-140.72;100.00;51605.66;6272039;23;19961;-70
2022/06/15 10:25:52;;;;;;;;;;;;;;;-140.72;100.00;51642.19;6270453;23;19950;-71
2022/06/15 10:28:22;;;;;;;;;;;;;;;-140.72;100.00;51668.56;6272664;23;20209;-69
2022/06/15 10:31:10;;;;;;;;;;;;;;;-140.72;100.00;51717.25;6271475;23;19926;-70
2022/06/15 10:33:37;;;;;;;;;;;;;;;-140.72;100.00;51676.69;6255171;22;19916;-70
2022/06/15 10:36:03;;;;;;;;;;;;;;;-140.72;100.00;51638.13;6270412;23;19916;-70
2022/06/15 10:38:28;;;;;;;;;;;;;;;-140.72;100.00;51609.72;6272718;22;19931;-71
2022/06/15 10:40:56;;;;;;;;;;;;;;;-140.72;100.00;51613.78;6273567;22;19914;-76
2022/06/15 10:43:27;;;;;;;;;;;;;;;-140.72;100.00;51609.72;6271775;22;19923;-73
2022/06/15 10:45:52;;;;;;;;;;;;;;;-140.72;100.00;51550.91;6272797;22;19907;-73
2022/06/15 10:48:20;;;;;;;;;;;;;;;-140.72;100.00;51579.28;6271841;22;19927;-72
2022/06/15 10:50:53;;;;;;;;;;;;;;;-140.72;100.00;51552.94;6274100;22;20011;-70
2022/06/15 10:53:27;;;;;;;;;;;;;;;-140.72;100.00;51559.00;6274109;22;19951;-72
2022/06/15 11:04:24;;;;;;;;;;;;;;;-140.72;100.00;51552.94;6273066;23;19916;-69
2022/06/15 11:07:09;;;;;;;;;;;;;;;-140.72;100.00;51569.16;6271494;22;19907;-71
2022/06/15 11:09:40;;;;;;;;;;;;;;;-140.72;100.00;51554.94;6271017;22;19916;-72
2022/06/15 11:12:32;;;;;;;;;;;;;;;-140.72;100.00;51528.59;6273227;22;19930;-70
2022/06/15 11:15:00;;;;;;;;;;;;;;;-140.72;100.00;51526.56;6268447;22;19918;-68
2022/06/15 11:20:22;;;;;;;;;;;;;;;-140.72;100.00;51526.56;6271524;22;19929;-71
2022/06/15 11:22:50;;;;;;;;;;;;;;;-140.72;100.00;51530.59;6245663;22;19919;-71
2022/06/15 11:25:17;;;;;;;;;;;;;;;-140.72;100.00;51534.66;6244884;22;20301;-72
2022/06/15 11:27:46;;;;;;;;;;;;;;;-140.72;97.63;51514.38;6271384;23;19919;-71
2022/06/15 11:30:20;;;;;;;;;;;;;;;-140.72;100.00;51498.16;6245272;23;19923;-70
2022/06/15 11:32:51;;;;;;;;;;;;;;;-140.72;100.00;51508.28;6245003;23;19923;-71
2022/06/15 11:35:20;;;;;;;;;;;;;;;-140.72;100.00;51518.44;6248580;22;19914;-72
2022/06/15 11:37:55;;;;;;;;;;;;;;;-140.72;100.00;51481.91;6301933;22;19915;-71
2022/06/15 11:40:42;;;;;;;;;;;;;;;-140.72;99.29;51457.56;6301556;22;19915;-73
2022/06/15 11:43:16;;;;;;;;;;;;;;;-140.72;99.63;51473.81;6303555;22;19919;-72
2022/06/15 11:46:04;;;;;;;;;;;;;;;-140.72;98.47;51481.91;6303967;22;19903;-71
2022/06/15 11:48:29;;;;;;;;;;;;;;;-140.72;98.46;51502.22;6302844;22;19903;-73
2022/06/15 11:51:08;;;;;;;;;;;;;;;-140.72;97.60;51431.19;6303614;22;19910;-73
2022/06/15 11:53:33;;;;;;;;;;;;;;;-140.72;95.49;51453.53;6303447;22;19903;-71
2022/06/15 11:56:25;;;;;;;;;;;;;;;-140.72;96.17;51530.59;6303638;22;19906;-69
2022/06/15 11:58:50;;;;;;;;;;;;;;;-140.72;99.84;51518.44;6296814;22;19914;-69
2022/06/15 12:01:34;;;;;;;;;;;;;;;-140.72;95.31;51522.50;6303149;22;19919;-70
2022/06/15 12:04:05;;;;;;;;;;;;;;;-140.72;92.43;51477.88;6275497;22;19903;-71
2022/06/15 12:06:35;;;;;;;;;;;;;;;-140.72;100.00;51546.84;6276623;22;19903;-72
2022/06/15 12:09:03;;;;;;;;;;;;;;;-140.72;93.33;51445.41;6303218;22;19931;-72
2022/06/15 12:14:23;;;;;;;;;;;;;;;-140.72;98.57;51477.88;6303517;22;19950;-73
2022/06/15 12:16:49;;;;;;;;;;;;;;;-140.72;96.48;51502.22;6303654;22;19904;-74
2022/06/15 12:19:35;;;;;;;;;;;;;;;-140.72;96.16;51467.72;6303512;22;19903;-73
2022/06/15 12:22:23;;;;;;;;;;;;;;;-140.72;100.00;51506.25;6304324;22;19903;-72
2022/06/15 12:25:14;;;;;;;;;;;;;;;-140.72;98.49;51510.31;6303646;22;19915;-73
2022/06/15 12:28:00;;;;;;;;;;;;;;;-140.72;100.00;51463.66;6256536;22;19923;-73
2022/06/15 12:30:28;;;;;;;;;;;;;;;-140.72;100.00;51481.91;6276563;22;19924;-71
2022/06/15 12:32:54;;;;;;;;;;;;;;;-140.72;94.06;51457.56;6302816;22;19938;-73
2022/06/15 12:35:31;;;;;;;;;;;;;;;-140.72;100.00;51449.47;6274033;22;19923;-71
2022/06/15 12:38:01;;;;;;;;;;;;;;;-140.72;98.61;51453.53;6293931;22;19953;-72
2022/06/15 12:40:32;;;;;;;;;;;;;;;-140.72;89.11;51481.91;6287886;22;19969;-72
2022/06/15 12:43:06;;;;;;;;;;;;;;;-140.72;99.10;51496.13;6257419;22;19911;-72
2022/06/15 12:45:33;;;;;;;;;;;;;;;-140.72;97.30;51514.38;6253293;22;19911;-73
2022/06/15 12:47:59;;;;;;;;;;;;;;;-140.72;100.00;51502.22;6253795;22;19911;-72